sensor_id;sensor_type;location;lat;lon;timestamp;pressure;altitude;pressure_sealevel;temperature;humidity
63808;BME280;49961;43.970;22.868;2024-02-16T00:00:25;102204.50;;;3.71;100.00
63808;BME280;49961;43.970;22.868;2024-02-16T00:01:26;102305.41;;;4.32;100.00
63808;BME280;49961;43.970;22.868;2024-02-16T00:02:26;102180.56;;;3.56;100.00
63808;BME280;49961;43.970;22.868;2024-02-16T00:03:28;102303.38;;;4.29;100.00
63808;BME280;49961;43.970;22.868;2024-02-16T00:04:28;102304.97;;;4.30;100.00
63808;BME280;49961;43.970;22.868;2024-02-16T00:05:29;102306.47;;;4.28;100.00
63808;BME280;49961;43.970;22.868;2024-02-16T00:06:29;102304.88;;;4.27;100.00
63808;BME280;49961;43.970;22.868;2024-02-16T00:07:31;102312.19;;;4.23;100.00
63808;BME280;49961;43.970;22.868;2024-02-16T00:08:31;102290.53;;;4.06;100.00
63808;BME280;49961;43.970;22.868;2024-02-16T00:09:34;102315.75;;;4.23;100.00
63808;BME280;49961;43.970;22.868;2024-02-16T00:10:35;102314.50;;;4.21;100.00
63808;BME280;49961;43.970;22.868;2024-02-16T00:11:36;102281.84;;;4.04;100.00
63808;BME280;49961;43.970;22.868;2024-02-16T00:12:37;102303.97;;;4.23;100.00
63808;BME280;49961;43.970;22.868;2024-02-16T00:13:38;102305.13;;;4.22;100.00
63808;BME280;49961;43.970;22.868;2024-02-16T00:14:39;102314.50;;;4.21;100.00
63808;BME280;49961;43.970;22.868;2024-02-16T00:15:39;102147.66;;;3.16;100.00
63808;BME280;49961;43.970;22.868;2024-02-16T00:16:40;102271.69;;;4.04;100.00
63808;BME280;49961;43.970;22.868;2024-02-16T00:17:40;102304.78;;;4.23;100.00
63808;BME280;49961;43.970;22.868;2024-02-16T00:18:41;102312.53;;;4.21;100.00
63808;BME280;49961;43.970;22.868;2024-02-16T00:19:41;102310.16;;;4.20;100.00
63808;BME280;49961;43.970;22.868;2024-02-16T00:20:42;102310.84;;;4.17;100.00
63808;BME280;49961;43.970;22.868;2024-02-16T00:21:43;102314.03;;;4.19;100.00
63808;BME280;49961;43.970;22.868;2024-02-16T00:22:43;102315.28;;;4.21;100.00
63808;BME280;49961;43.970;22.868;2024-02-16T00:23:45;102207.53;;;3.42;100.00
63808;BME280;49961;43.970;22.868;2024-02-16T00:24:45;102311.53;;;4.14;100.00
63808;BME280;49961;43.970;22.868;2024-02-16T00:25:46;102315.09;;;4.14;100.00
63808;BME280;49961;43.970;22.868;2024-02-16T00:26:47;102310.28;;;4.11;100.00
63808;BME280;49961;43.970;22.868;2024-02-16T00:27:48;102175.25;;;3.23;100.00
63808;BME280;49961;43.970;22.868;2024-02-16T00:28:48;102309.41;;;4.07;100.00
63808;BME280;49961;43.970;22.868;2024-02-16T00:29:49;102300.72;;;4.05;100.00
63808;BME280;49961;43.970;22.868;2024-02-16T00:30:50;102242.88;;;3.71;100.00
63808;BME280;49961;43.970;22.868;2024-02-16T00:31:50;102285.09;;;3.94;100.00
63808;BME280;49961;43.970;22.868;2024-02-16T00:32:51;102299.94;;;4.05;100.00
63808;BME280;49961;43.970;22.868;2024-02-16T00:33:52;102302.69;;;4.05;100.00
63808;BME280;49961;43.970;22.868;2024-02-16T00:34:53;102313.19;;;4.03;100.00
63808;BME280;49961;43.970;22.868;2024-02-16T00:35:53;102306.09;;;4.02;100.00
63808;BME280;49961;43.970;22.868;2024-02-16T00:36:54;102159.09;;;3.06;100.00
63808;BME280;49961;43.970;22.868;2024-02-16T00:37:55;102235.47;;;3.59;100.00
63808;BME280;49961;43.970;22.868;2024-02-16T00:38:56;102311.59;;;4.02;100.00
63808;BME280;49961;43.970;22.868;2024-02-16T00:39:57;102306.34;;;3.97;100.00
63808;BME280;49961;43.970;22.868;2024-02-16T00:40:58;102298.25;;;3.88;100.00
63808;BME280;49961;43.970;22.868;2024-02-16T00:41:58;102307.03;;;3.94;100.00
63808;BME280;49961;43.970;22.868;2024-02-16T00:42:59;102305.91;;;3.95;100.00
63808;BME280;49961;43.970;22.868;2024-02-16T00:43:59;102303.94;;;3.95;100.00
63808;BME280;49961;43.970;22.868;2024-02-16T00:45:00;102311.50;;;3.98;100.00
63808;BME280;49961;43.970;22.868;2024-02-16T00:46:01;102308.28;;;3.96;100.00
63808;BME280;49961;43.970;22.868;2024-02-16T00:47:01;102307.50;;;3.96;100.00
63808;BME280;49961;43.970;22.868;2024-02-16T00:48:02;102184.44;;;3.15;100.00
63808;BME280;49961;43.970;22.868;2024-02-16T00:49:03;102177.69;;;3.13;100.00
63808;BME280;49961;43.970;22.868;2024-02-16T00:50:04;102311.50;;;3.98;100.00
63808;BME280;49961;43.970;22.868;2024-02-16T00:51:08;102305.28;;;4.01;100.00
63808;BME280;49961;43.970;22.868;2024-02-16T00:52:09;102306.09;;;4.02;100.00
63808;BME280;49961;43.970;22.868;2024-02-16T00:53:10;102307.16;;;3.97;100.00
63808;BME280;49961;43.970;22.868;2024-02-16T00:54:11;102285.59;;;3.84;100.00
63808;BME280;49961;43.970;22.868;2024-02-16T00:55:11;102304.28;;;3.94;100.00
63808;BME280;49961;43.970;22.868;2024-02-16T00:56:13;102305.09;;;3.94;100.00
63808;BME280;49961;43.970;22.868;2024-02-16T00:57:13;102311.81;;;3.97;100.00
63808;BME280;49961;43.970;22.868;2024-02-16T00:58:14;102215.66;;;3.38;100.00
63808;BME280;49961;43.970;22.868;2024-02-16T00:59:14;102246.44;;;3.59;100.00
63808;BME280;49961;43.970;22.868;2024-02-16T01:00:15;102298.56;;;3.99;100.00
63808;BME280;49961;43.970;22.868;2024-02-16T01:01:16;102308.75;;;3.98;100.00
63808;BME280;49961;43.970;22.868;2024-02-16T01:02:16;102306.00;;;3.98;100.00
63808;BME280;49961;43.970;22.868;2024-02-16T01:03:17;102305.53;;;3.96;100.00
63808;BME280;49961;43.970;22.868;2024-02-16T01:04:17;102274.16;;;3.82;100.00
63808;BME280;49961;43.970;22.868;2024-02-16T01:05:18;102300.41;;;3.95;100.00
63808;BME280;49961;43.970;22.868;2024-02-16T01:06:20;102306.25;;;3.93;100.00
63808;BME280;49961;43.970;22.868;2024-02-16T01:07:20;102297.53;;;3.91;100.00
63808;BME280;49961;43.970;22.868;2024-02-16T01:08:21;102301.09;;;3.92;100.00
63808;BME280;49961;43.970;22.868;2024-02-16T01:09:23;102288.44;;;3.87;100.00
63808;BME280;49961;43.970;22.868;2024-02-16T01:10:24;102303.41;;;3.90;100.00
63808;BME280;49961;43.970;22.868;2024-02-16T01:11:24;102306.47;;;3.88;100.00
63808;BME280;49961;43.970;22.868;2024-02-16T01:12:24;102304.53;;;3.89;100.00
63808;BME280;49961;43.970;22.868;2024-02-16T01:13:25;102305.34;;;3.89;100.00
63808;BME280;49961;43.970;22.868;2024-02-16T01:14:25;102311.25;;;3.91;100.00
63808;BME280;49961;43.970;22.868;2024-02-16T01:15:26;102303.75;;;3.88;100.00
63808;BME280;49961;43.970;22.868;2024-02-16T01:16:27;102235.97;;;3.49;100.00
63808;BME280;49961;43.970;22.868;2024-02-16T01:17:27;102303.28;;;3.86;100.00
63808;BME280;49961;43.970;22.868;2024-02-16T01:18:28;102310.63;;;3.82;100.00
63808;BME280;49961;43.970;22.868;2024-02-16T01:19:29;102242.59;;;3.48;100.00
63808;BME280;49961;43.970;22.868;2024-02-16T01:20:30;102303.53;;;3.81;100.00
63808;BME280;49961;43.970;22.868;2024-02-16T01:21:31;102248.75;;;3.57;100.00
63808;BME280;49961;43.970;22.868;2024-02-16T01:22:32;102186.25;;;3.11;100.00
63808;BME280;49961;43.970;22.868;2024-02-16T01:23:32;102275.69;;;3.67;100.00
63808;BME280;49961;43.970;22.868;2024-02-16T01:24:33;102301.56;;;3.82;100.00
63808;BME280;49961;43.970;22.868;2024-02-16T01:25:33;102242.00;;;3.43;100.00
63808;BME280;49961;43.970;22.868;2024-02-16T01:26:34;102287.34;;;3.64;100.00
63808;BME280;49961;43.970;22.868;2024-02-16T01:27:35;102298.97;;;3.73;100.00
63808;BME280;49961;43.970;22.868;2024-02-16T01:28:36;102305.38;;;3.77;100.00
63808;BME280;49961;43.970;22.868;2024-02-16T01:29:36;102277.31;;;3.56;100.00
63808;BME280;49961;43.970;22.868;2024-02-16T01:30:37;102281.84;;;3.64;100.00
63808;BME280;49961;43.970;22.868;2024-02-16T01:31:38;102298.53;;;3.71;100.00
63808;BME280;49961;43.970;22.868;2024-02-16T01:32:38;102303.22;;;3.71;100.00
63808;BME280;49961;43.970;22.868;2024-02-16T01:33:39;102246.28;;;3.40;100.00
63808;BME280;49961;43.970;22.868;2024-02-16T01:34:39;102265.78;;;3.51;100.00
63808;BME280;49961;43.970;22.868;2024-02-16T01:35:40;102291.44;;;3.70;100.00
63808;BME280;49961;43.970;22.868;2024-02-16T01:36:40;102292.81;;;3.64;100.00
63808;BME280;49961;43.970;22.868;2024-02-16T01:37:41;102232.22;;;3.30;100.00
63808;BME280;49961;43.970;22.868;2024-02-16T01:38:42;102297.38;;;3.60;100.00
63808;BME280;49961;43.970;22.868;2024-02-16T01:39:43;102290.31;;;3.59;100.00
63808;BME280;49961;43.970;22.868;2024-02-16T01:40:44;102294.19;;;3.58;100.00
63808;BME280;49961;43.970;22.868;2024-02-16T01:41:45;102283.03;;;3.51;100.00
63808;BME280;49961;43.970;22.868;2024-02-16T01:42:47;102119.00;;;2.38;100.00
63808;BME280;49961;43.970;22.868;2024-02-16T01:43:48;102140.19;;;2.53;100.00
63808;BME280;49961;43.970;22.868;2024-02-16T01:44:48;102294.22;;;3.46;100.00
63808;BME280;49961;43.970;22.868;2024-02-16T01:45:48;102197.56;;;2.74;100.00
63808;BME280;49961;43.970;22.868;2024-02-16T01:46:49;102294.09;;;3.31;100.00
63808;BME280;49961;43.970;22.868;2024-02-16T01:47:50;102281.66;;;3.33;100.00
63808;BME280;49961;43.970;22.868;2024-02-16T01:48:52;102289.53;;;3.35;100.00
63808;BME280;49961;43.970;22.868;2024-02-16T01:49:53;102286.91;;;3.38;100.00
63808;BME280;49961;43.970;22.868;2024-02-16T01:50:53;102281.44;;;3.38;100.00
63808;BME280;49961;43.970;22.868;2024-02-16T01:51:54;102288.50;;;3.39;100.00
63808;BME280;49961;43.970;22.868;2024-02-16T01:52:55;102281.78;;;3.37;100.00
63808;BME280;49961;43.970;22.868;2024-02-16T01:53:55;102276.06;;;3.30;100.00
63808;BME280;49961;43.970;22.868;2024-02-16T01:54:57;102231.81;;;2.92;100.00
63808;BME280;49961;43.970;22.868;2024-02-16T01:55:58;102281.22;;;3.31;100.00
63808;BME280;49961;43.970;22.868;2024-02-16T01:57:00;102276.88;;;3.30;100.00
63808;BME280;49961;43.970;22.868;2024-02-16T01:58:01;102283.84;;;3.28;100.00
63808;BME280;49961;43.970;22.868;2024-02-16T01:59:03;102278.69;;;3.14;100.00
63808;BME280;49961;43.970;22.868;2024-02-16T02:00:04;102190.03;;;2.59;100.00
63808;BME280;49961;43.970;22.868;2024-02-16T02:01:07;102284.75;;;3.20;100.00
63808;BME280;49961;43.970;22.868;2024-02-16T02:02:08;102281.34;;;3.23;100.00
63808;BME280;49961;43.970;22.868;2024-02-16T02:03:08;102284.84;;;3.23;100.00
63808;BME280;49961;43.970;22.868;2024-02-16T02:04:10;102291.25;;;3.27;100.00
63808;BME280;49961;43.970;22.868;2024-02-16T02:05:11;102254.50;;;3.16;100.00
63808;BME280;49961;43.970;22.868;2024-02-16T02:06:12;102114.63;;;2.25;100.00
63808;BME280;49961;43.970;22.868;2024-02-16T02:07:13;102282.00;;;3.32;100.00
63808;BME280;49961;43.970;22.868;2024-02-16T02:08:14;102279.25;;;3.32;100.00
63808;BME280;49961;43.970;22.868;2024-02-16T02:09:15;102271.16;;;3.23;100.00
63808;BME280;49961;43.970;22.868;2024-02-16T02:10:15;102287.03;;;3.30;100.00
63808;BME280;49961;43.970;22.868;2024-02-16T02:11:16;102278.59;;;3.23;100.00
63808;BME280;49961;43.970;22.868;2024-02-16T02:12:16;102284.75;;;3.32;100.00
63808;BME280;49961;43.970;22.868;2024-02-16T02:13:17;102284.41;;;3.33;100.00
63808;BME280;49961;43.970;22.868;2024-02-16T02:14:22;102283.63;;;3.33;100.00
63808;BME280;49961;43.970;22.868;2024-02-16T02:15:23;102288.28;;;3.32;100.00
63808;BME280;49961;43.970;22.868;2024-02-16T02:16:23;102285.44;;;3.29;100.00
63808;BME280;49961;43.970;22.868;2024-02-16T02:17:26;102290.59;;;3.30;100.00
63808;BME280;49961;43.970;22.868;2024-02-16T02:18:27;102285.34;;;3.25;100.00
63808;BME280;49961;43.970;22.868;2024-02-16T02:19:29;102294.44;;;3.29;100.00
63808;BME280;49961;43.970;22.868;2024-02-16T02:20:29;102290.44;;;3.27;100.00
63808;BME280;49961;43.970;22.868;2024-02-16T02:21:30;102291.59;;;3.26;100.00
63808;BME280;49961;43.970;22.868;2024-02-16T02:22:30;102295.38;;;3.21;100.00
63808;BME280;49961;43.970;22.868;2024-02-16T02:23:31;102293.78;;;3.20;100.00
63808;BME280;49961;43.970;22.868;2024-02-16T02:24:31;102286.22;;;3.17;100.00
63808;BME280;49961;43.970;22.868;2024-02-16T02:25:32;102292.88;;;3.16;100.00
63808;BME280;49961;43.970;22.868;2024-02-16T02:26:32;102298.44;;;3.08;100.00
63808;BME280;49961;43.970;22.868;2024-02-16T02:27:33;102290.44;;;2.91;100.00
63808;BME280;49961;43.970;22.868;2024-02-16T02:28:33;102299.56;;;2.95;100.00
63808;BME280;49961;43.970;22.868;2024-02-16T02:29:34;102300.59;;;2.90;100.00
63808;BME280;49961;43.970;22.868;2024-02-16T02:30:35;102302.84;;;2.88;100.00
63808;BME280;49961;43.970;22.868;2024-02-16T02:31:35;102298.09;;;2.85;100.00
63808;BME280;49961;43.970;22.868;2024-02-16T02:32:36;102251.94;;;2.51;100.00
63808;BME280;49961;43.970;22.868;2024-02-16T02:33:36;102283.13;;;2.83;100.00
63808;BME280;49961;43.970;22.868;2024-02-16T02:34:37;102296.59;;;2.88;100.00
63808;BME280;49961;43.970;22.868;2024-02-16T02:35:37;102299.44;;;2.91;100.00
63808;BME280;49961;43.970;22.868;2024-02-16T02:36:38;102299.00;;;2.89;100.00
63808;BME280;49961;43.970;22.868;2024-02-16T02:37:38;102300.47;;;2.87;100.00
63808;BME280;49961;43.970;22.868;2024-02-16T02:38:39;102292.28;;;2.87;100.00
63808;BME280;49961;43.970;22.868;2024-02-16T02:39:39;102297.28;;;2.85;100.00
63808;BME280;49961;43.970;22.868;2024-02-16T02:40:40;102228.06;;;2.40;100.00
63808;BME280;49961;43.970;22.868;2024-02-16T02:41:41;102301.59;;;2.86;100.00
63808;BME280;49961;43.970;22.868;2024-02-16T02:42:41;102155.69;;;1.93;100.00
63808;BME280;49961;43.970;22.868;2024-02-16T02:43:42;102305.97;;;2.87;100.00
63808;BME280;49961;43.970;22.868;2024-02-16T02:44:42;102305.47;;;2.85;100.00
63808;BME280;49961;43.970;22.868;2024-02-16T02:45:49;102275.03;;;2.74;100.00
63808;BME280;49961;43.970;22.868;2024-02-16T02:46:50;102300.22;;;2.80;100.00
63808;BME280;49961;43.970;22.868;2024-02-16T02:47:51;102317.34;;;2.77;100.00
63808;BME280;49961;43.970;22.868;2024-02-16T02:48:52;102305.13;;;2.74;100.00
63808;BME280;49961;43.970;22.868;2024-02-16T02:49:52;102150.31;;;1.84;100.00
63808;BME280;49961;43.970;22.868;2024-02-16T02:50:53;102303.31;;;2.78;100.00
63808;BME280;49961;43.970;22.868;2024-02-16T02:51:53;102311.66;;;2.82;100.00
63808;BME280;49961;43.970;22.868;2024-02-16T02:52:54;102194.84;;;2.17;100.00
63808;BME280;49961;43.970;22.868;2024-02-16T02:53:54;102314.03;;;2.83;100.00
63808;BME280;49961;43.970;22.868;2024-02-16T02:54:55;102308.56;;;2.83;100.00
63808;BME280;49961;43.970;22.868;2024-02-16T02:55:55;102301.59;;;2.86;100.00
63808;BME280;49961;43.970;22.868;2024-02-16T02:56:56;102224.75;;;2.34;100.00
63808;BME280;49961;43.970;22.868;2024-02-16T02:57:57;102305.03;;;2.83;100.00
63808;BME280;49961;43.970;22.868;2024-02-16T02:58:58;102311.28;;;2.83;100.00
63808;BME280;49961;43.970;22.868;2024-02-16T03:00:05;102300.94;;;2.77;100.00
63808;BME280;49961;43.970;22.868;2024-02-16T03:01:06;102308.00;;;2.78;100.00
63808;BME280;49961;43.970;22.868;2024-02-16T03:02:08;102294.84;;;2.71;100.00
63808;BME280;49961;43.970;22.868;2024-02-16T03:03:09;102305.47;;;2.73;100.00
63808;BME280;49961;43.970;22.868;2024-02-16T03:04:09;102309.34;;;2.72;100.00
63808;BME280;49961;43.970;22.868;2024-02-16T03:05:10;102298.22;;;2.56;100.00
63808;BME280;49961;43.970;22.868;2024-02-16T03:06:11;102299.94;;;2.61;100.00
63808;BME280;49961;43.970;22.868;2024-02-16T03:07:12;102316.38;;;2.61;100.00
63808;BME280;49961;43.970;22.868;2024-02-16T03:08:12;102312.84;;;2.60;100.00
63808;BME280;49961;43.970;22.868;2024-02-16T03:09:13;102311.25;;;2.59;100.00
63808;BME280;49961;43.970;22.868;2024-02-16T03:10:13;102314.44;;;2.61;100.00
63808;BME280;49961;43.970;22.868;2024-02-16T03:11:20;102306.91;;;2.58;100.00
63808;BME280;49961;43.970;22.868;2024-02-16T03:12:21;102315.91;;;2.59;100.00
63808;BME280;49961;43.970;22.868;2024-02-16T03:13:22;102315.81;;;2.55;100.00
63808;BME280;49961;43.970;22.868;2024-02-16T03:14:23;102312.25;;;2.55;100.00
63808;BME280;49961;43.970;22.868;2024-02-16T03:15:23;102309.50;;;2.55;100.00
63808;BME280;49961;43.970;22.868;2024-02-16T03:16:24;102309.41;;;2.51;100.00
63808;BME280;49961;43.970;22.868;2024-02-16T03:17:24;102315.34;;;2.53;100.00
63808;BME280;49961;43.970;22.868;2024-02-16T03:18:25;102305.41;;;2.49;100.00
63808;BME280;49961;43.970;22.868;2024-02-16T03:19:25;102311.81;;;2.53;100.00
63808;BME280;49961;43.970;22.868;2024-02-16T03:20:26;102307.34;;;2.48;100.00
63808;BME280;49961;43.970;22.868;2024-02-16T03:21:26;102317.94;;;2.50;100.00
63808;BME280;49961;43.970;22.868;2024-02-16T03:22:27;102317.59;;;2.51;100.00
63808;BME280;49961;43.970;22.868;2024-02-16T03:23:27;102316.34;;;2.49;100.00
63808;BME280;49961;43.970;22.868;2024-02-16T03:24:28;102322.16;;;2.47;100.00
63808;BME280;49961;43.970;22.868;2024-02-16T03:25:29;102318.63;;;2.47;100.00
63808;BME280;49961;43.970;22.868;2024-02-16T03:26:30;102310.78;;;2.25;100.00
63808;BME280;49961;43.970;22.868;2024-02-16T03:27:32;102295.16;;;2.25;100.00
63808;BME280;49961;43.970;22.868;2024-02-16T03:28:33;102313.03;;;2.43;100.00
63808;BME280;49961;43.970;22.868;2024-02-16T03:29:33;102293.38;;;2.29;100.00
63808;BME280;49961;43.970;22.868;2024-02-16T03:30:34;102314.28;;;2.46;100.00
63808;BME280;49961;43.970;22.868;2024-02-16T03:31:35;102312.34;;;2.46;100.00
63808;BME280;49961;43.970;22.868;2024-02-16T03:32:35;102300.69;;;2.37;100.00
63808;BME280;49961;43.970;22.868;2024-02-16T03:33:36;102319.41;;;2.47;100.00
63808;BME280;49961;43.970;22.868;2024-02-16T03:34:36;102317.03;;;2.46;100.00
63808;BME280;49961;43.970;22.868;2024-02-16T03:35:37;102287.41;;;2.27;100.00
63808;BME280;49961;43.970;22.868;2024-02-16T03:36:37;102323.06;;;2.51;100.00
63808;BME280;49961;43.970;22.868;2024-02-16T03:37:38;102320.47;;;2.55;100.00
63808;BME280;49961;43.970;22.868;2024-02-16T03:38:42;102292.81;;;2.36;100.00
63808;BME280;49961;43.970;22.868;2024-02-16T03:39:43;102318.75;;;2.50;100.00
63808;BME280;49961;43.970;22.868;2024-02-16T03:40:44;102316.47;;;2.52;100.00
63808;BME280;49961;43.970;22.868;2024-02-16T03:41:44;102321.72;;;2.57;100.00
63808;BME280;49961;43.970;22.868;2024-02-16T03:42:47;102320.72;;;2.62;100.00
63808;BME280;49961;43.970;22.868;2024-02-16T03:43:49;102312.63;;;2.53;100.00
63808;BME280;49961;43.970;22.868;2024-02-16T03:44:49;102326.88;;;2.59;100.00
63808;BME280;49961;43.970;22.868;2024-02-16T03:45:50;102329.16;;;2.57;100.00
63808;BME280;49961;43.970;22.868;2024-02-16T03:46:50;102321.03;;;2.48;100.00
63808;BME280;49961;43.970;22.868;2024-02-16T03:47:51;102328.88;;;2.50;100.00
63808;BME280;49961;43.970;22.868;2024-02-16T03:48:54;102328.22;;;2.53;100.00
63808;BME280;49961;43.970;22.868;2024-02-16T03:49:55;102309.03;;;2.41;100.00
63808;BME280;49961;43.970;22.868;2024-02-16T03:50:55;102327.78;;;2.51;100.00
63808;BME280;49961;43.970;22.868;2024-02-16T03:51:56;102331.16;;;2.48;100.00
63808;BME280;49961;43.970;22.868;2024-02-16T03:52:56;102335.81;;;2.47;100.00
63808;BME280;49961;43.970;22.868;2024-02-16T03:53:57;102329.09;;;2.45;100.00
63808;BME280;49961;43.970;22.868;2024-02-16T03:54:57;102233.91;;;1.85;100.00
63808;BME280;49961;43.970;22.868;2024-02-16T03:55:58;102331.81;;;2.45;100.00
63808;BME280;49961;43.970;22.868;2024-02-16T03:56:58;102334.94;;;2.43;100.00
63808;BME280;49961;43.970;22.868;2024-02-16T03:57:59;102341.19;;;2.44;100.00
63808;BME280;49961;43.970;22.868;2024-02-16T03:58:59;102334.78;;;2.40;100.00
63808;BME280;49961;43.970;22.868;2024-02-16T04:00:00;102340.13;;;2.36;100.00
63808;BME280;49961;43.970;22.868;2024-02-16T04:01:00;102336.59;;;2.36;100.00
63808;BME280;49961;43.970;22.868;2024-02-16T04:02:01;102339.34;;;2.36;100.00
63808;BME280;49961;43.970;22.868;2024-02-16T04:03:01;102333.88;;;2.36;100.00
63808;BME280;49961;43.970;22.868;2024-02-16T04:04:03;102333.06;;;2.35;100.00
63808;BME280;49961;43.970;22.868;2024-02-16T04:05:03;102336.94;;;2.34;100.00
63808;BME280;49961;43.970;22.868;2024-02-16T04:06:04;102339.06;;;2.29;100.00
63808;BME280;49961;43.970;22.868;2024-02-16T04:07:05;102323.00;;;2.07;100.00
63808;BME280;49961;43.970;22.868;2024-02-16T04:08:08;102337.00;;;2.26;100.00
63808;BME280;49961;43.970;22.868;2024-02-16T04:09:09;102337.78;;;2.26;100.00
63808;BME280;49961;43.970;22.868;2024-02-16T04:10:10;102334.94;;;2.23;100.00
63808;BME280;49961;43.970;22.868;2024-02-16T04:11:12;102341.25;;;2.15;100.00
63808;BME280;49961;43.970;22.868;2024-02-16T04:12:13;102340.53;;;2.26;100.00
63808;BME280;49961;43.970;22.868;2024-02-16T04:13:14;102339.38;;;2.27;100.00
63808;BME280;49961;43.970;22.868;2024-02-16T04:14:14;102339.75;;;2.26;100.00
63808;BME280;49961;43.970;22.868;2024-02-16T04:15:15;102343.25;;;2.26;100.00
63808;BME280;49961;43.970;22.868;2024-02-16T04:16:16;102335.38;;;2.25;100.00
63808;BME280;49961;43.970;22.868;2024-02-16T04:17:16;102341.66;;;2.25;100.00
63808;BME280;49961;43.970;22.868;2024-02-16T04:18:17;102342.00;;;2.24;100.00
63808;BME280;49961;43.970;22.868;2024-02-16T04:19:19;102331.81;;;2.12;100.00
63808;BME280;49961;43.970;22.868;2024-02-16T04:20:20;102345.75;;;2.19;100.00
63808;BME280;49961;43.970;22.868;2024-02-16T04:21:20;102342.75;;;2.12;100.00
63808;BME280;49961;43.970;22.868;2024-02-16T04:22:21;102342.88;;;2.16;100.00
63808;BME280;49961;43.970;22.868;2024-02-16T04:23:22;102345.25;;;2.17;100.00
63808;BME280;49961;43.970;22.868;2024-02-16T04:24:22;102346.88;;;2.18;100.00
63808;BME280;49961;43.970;22.868;2024-02-16T04:25:23;102221.72;;;1.42;100.00
63808;BME280;49961;43.970;22.868;2024-02-16T04:26:23;102345.75;;;2.19;100.00
63808;BME280;49961;43.970;22.868;2024-02-16T04:27:24;102345.41;;;2.21;100.00
63808;BME280;49961;43.970;22.868;2024-02-16T04:28:25;102349.41;;;2.23;100.00
63808;BME280;49961;43.970;22.868;2024-02-16T04:29:25;102340.84;;;2.25;100.00
63808;BME280;49961;43.970;22.868;2024-02-16T04:30:26;102350.19;;;2.24;100.00
63808;BME280;49961;43.970;22.868;2024-02-16T04:31:26;102345.53;;;2.24;100.00
63808;BME280;49961;43.970;22.868;2024-02-16T04:32:27;102341.88;;;2.20;100.00
63808;BME280;49961;43.970;22.868;2024-02-16T04:33:27;102261.47;;;1.60;100.00
63808;BME280;49961;43.970;22.868;2024-02-16T04:34:28;102350.97;;;2.12;100.00
63808;BME280;49961;43.970;22.868;2024-02-16T04:35:28;102344.56;;;2.08;100.00
63808;BME280;49961;43.970;22.868;2024-02-16T04:36:29;102350.69;;;2.05;100.00
63808;BME280;49961;43.970;22.868;2024-02-16T04:37:30;102338.00;;;2.01;100.00
63808;BME280;49961;43.970;22.868;2024-02-16T04:38:30;102349.59;;;1.98;100.00
63808;BME280;49961;43.970;22.868;2024-02-16T04:39:31;102356.88;;;1.94;100.00
63808;BME280;49961;43.970;22.868;2024-02-16T04:40:36;102343.56;;;1.92;100.00
63808;BME280;49961;43.970;22.868;2024-02-16T04:41:37;102335.38;;;1.84;100.00
63808;BME280;49961;43.970;22.868;2024-02-16T04:42:38;102348.53;;;1.90;100.00
63808;BME280;49961;43.970;22.868;2024-02-16T04:43:40;102337.34;;;1.83;100.00
63808;BME280;49961;43.970;22.868;2024-02-16T04:44:41;102342.63;;;1.88;100.00
63808;BME280;49961;43.970;22.868;2024-02-16T04:45:41;102344.53;;;1.88;100.00
63808;BME280;49961;43.970;22.868;2024-02-16T04:46:42;102344.59;;;1.79;100.00
63808;BME280;49961;43.970;22.868;2024-02-16T04:47:43;102343.78;;;1.79;100.00
63808;BME280;49961;43.970;22.868;2024-02-16T04:48:43;102341.41;;;1.77;100.00
63808;BME280;49961;43.970;22.868;2024-02-16T04:49:44;102336.97;;;1.64;100.00
63808;BME280;49961;43.970;22.868;2024-02-16T04:50:44;102351.13;;;1.66;100.00
63808;BME280;49961;43.970;22.868;2024-02-16T04:51:45;102348.72;;;1.65;100.00
63808;BME280;49961;43.970;22.868;2024-02-16T04:52:47;102260.00;;;1.13;100.00
63808;BME280;49961;43.970;22.868;2024-02-16T04:53:48;102223.63;;;0.92;100.00
63808;BME280;49961;43.970;22.868;2024-02-16T04:54:48;102345.13;;;1.73;100.00
63808;BME280;49961;43.970;22.868;2024-02-16T04:55:49;102346.72;;;1.74;100.00
63808;BME280;49961;43.970;22.868;2024-02-16T04:56:50;102335.31;;;1.72;100.00
63808;BME280;49961;43.970;22.868;2024-02-16T04:57:50;102349.25;;;1.79;100.00
63808;BME280;49961;43.970;22.868;2024-02-16T04:58:51;102346.50;;;1.79;100.00
63808;BME280;49961;43.970;22.868;2024-02-16T04:59:51;102344.59;;;1.79;100.00
63808;BME280;49961;43.970;22.868;2024-02-16T05:00:52;102339.31;;;1.74;100.00
63808;BME280;49961;43.970;22.868;2024-02-16T05:01:52;102347.97;;;1.76;100.00
63808;BME280;49961;43.970;22.868;2024-02-16T05:02:53;102345.78;;;1.70;100.00
63808;BME280;49961;43.970;22.868;2024-02-16T05:03:53;102349.00;;;1.72;100.00
63808;BME280;49961;43.970;22.868;2024-02-16T05:04:54;102347.53;;;1.74;100.00
63808;BME280;49961;43.970;22.868;2024-02-16T05:05:54;102342.06;;;1.74;100.00
63808;BME280;49961;43.970;22.868;2024-02-16T05:06:55;102339.19;;;1.71;100.00
63808;BME280;49961;43.970;22.868;2024-02-16T05:07:57;102350.72;;;1.76;100.00
63808;BME280;49961;43.970;22.868;2024-02-16T05:08:58;102353.44;;;1.76;100.00
63808;BME280;49961;43.970;22.868;2024-02-16T05:09:58;102260.19;;;1.08;100.00
63808;BME280;49961;43.970;22.868;2024-02-16T05:11:00;102179.66;;;0.64;100.00
63808;BME280;49961;43.970;22.868;2024-02-16T05:12:02;102340.56;;;1.56;100.00
63808;BME280;49961;43.970;22.868;2024-02-16T05:13:03;102162.88;;;0.45;100.00
63808;BME280;49961;43.970;22.868;2024-02-16T05:14:03;102356.78;;;1.61;100.00